Time;durP1;ratioP1;P1;durP2;ratioP2;P2;SDS_P1;SDS_P2;PMS_P1;PMS_P2;Temp;Humidity;BMP_temperature;BMP_pressure;BME280_temperature;BME280_humidity;BME280_pressure;Samples;Min_cycle;Max_cycle;Signal;HPM_P1;HPM_P2
2022/06/29 00:01:45;;;;;;;2.80;1.40;;;21.70;76.10;;;;;;5032195;28;20033;-48
2022/06/29 00:04:11;;;;;;;1.95;1.40;;;21.70;76.40;;;;;;5032330;28;20025;-46
2022/06/29 00:06:36;;;;;;;3.13;1.38;;;21.70;76.40;;;;;;5032349;28;20029;-49
2022/06/29 00:09:01;;;;;;;6.10;1.45;;;21.70;76.70;;;;;;5030760;28;20116;-47
2022/06/29 00:11:28;;;;;;;3.70;1.17;;;21.60;76.50;;;;;;5032229;28;20021;-46
2022/06/29 00:13:53;;;;;;;2.13;1.17;;;21.60;76.50;;;;;;5014181;28;20022;-48
2022/06/29 00:16:18;;;;;;;3.80;1.50;;;21.60;77.40;;;;;;5031595;28;20491;-50
2022/06/29 00:18:44;;;;;;;0.82;0.80;;;21.60;77.30;;;;;;5030419;28;20026;-47
2022/06/29 00:21:10;;;;;;;3.83;1.30;;;21.60;77.50;;;;;;5031284;28;20026;-46
2022/06/29 00:23:35;;;;;;;5.63;1.70;;;21.60;76.40;;;;;;5031210;28;20025;-47
2022/06/29 00:26:00;;;;;;;2.67;1.10;;;21.60;76.50;;;;;;5031226;28;20497;-50
2022/06/29 00:28:26;;;;;;;1.48;1.10;;;21.50;76.70;;;;;;5030341;28;20129;-46
2022/06/29 00:30:52;;;;;;;3.03;1.35;;;21.50;76.60;;;;;;5031129;28;20477;-47
2022/06/29 00:33:17;;;;;;;2.40;0.90;;;21.40;76.90;;;;;;5013400;28;20030;-49
2022/06/29 00:35:43;;;;;;;1.60;1.08;;;21.40;77.10;;;;;;5031082;28;20017;-48
2022/06/29 00:38:08;;;;;;;2.05;1.33;;;21.40;77.30;;;;;;5030232;28;20036;-47
2022/06/29 00:40:34;;;;;;;1.40;1.30;;;21.30;77.30;;;;;;5030994;28;20477;-44
2022/06/29 00:42:59;;;;;;;2.83;1.50;;;21.40;77.70;;;;;;5032807;28;20025;-48
2022/06/29 00:45:25;;;;;;;2.28;1.63;;;21.30;77.50;;;;;;5034557;28;20039;-48
2022/06/29 00:47:51;;;;;;;6.63;1.45;;;21.30;77.60;;;;;;5033601;28;20505;-44
2022/06/29 00:50:18;;;;;;;2.33;1.23;;;21.30;77.90;;;;;;5034543;28;20096;-48
2022/06/29 00:52:45;;;;;;;4.15;1.52;;;21.30;78.10;;;;;;5034544;28;20104;-47
2022/06/29 00:55:18;;;;;;;2.97;1.10;;;21.30;77.90;;;;;;5034641;28;20025;-48
2022/06/29 00:57:45;;;;;;;1.48;1.20;;;21.30;78.10;;;;;;5032006;28;20033;-47
2022/06/29 01:00:12;;;;;;;4.32;1.40;;;21.30;78.10;;;;;;5035101;28;20376;-44
2022/06/29 01:02:37;;;;;;;2.95;1.50;;;21.20;78.20;;;;;;5035293;28;20053;-47
2022/06/29 01:05:05;;;;;;;4.68;1.63;;;21.20;78.20;;;;;;5034982;28;20053;-50
2022/06/29 01:07:32;;;;;;;3.38;1.40;;;21.20;78.50;;;;;;5034275;28;20202;-48
2022/06/29 01:09:58;;;;;;;3.55;1.25;;;21.20;78.60;;;;;;5035584;28;20382;-44
2022/06/29 01:12:25;;;;;;;1.40;1.27;;;21.20;78.60;;;;;;5035436;28;20029;-44
2022/06/29 01:14:51;;;;;;;3.75;1.33;;;21.20;78.50;;;;;;5034290;28;20037;-49
2022/06/29 01:17:18;;;;;;;1.95;1.20;;;21.10;78.80;;;;;;5033504;28;20022;-50
2022/06/29 01:19:44;;;;;;;2.70;1.65;;;21.10;79.00;;;;;;5034337;28;20087;-47
2022/06/29 01:22:13;;;;;;;1.80;1.30;;;21.10;78.90;;;;;;5034076;28;20030;-46
2022/06/29 01:24:40;;;;;;;1.50;1.40;;;21.10;79.00;;;;;;5033831;28;20449;-47
2022/06/29 01:27:05;;;;;;;1.52;1.20;;;21.10;79.10;;;;;;5032998;28;20113;-50
2022/06/29 01:29:31;;;;;;;1.80;1.70;;;21.10;79.30;;;;;;5033398;28;20116;-48
2022/06/29 01:31:57;;;;;;;4.15;1.48;;;21.00;79.40;;;;;;5016206;28;20017;-48
2022/06/29 01:34:24;;;;;;;1.23;1.13;;;21.10;79.20;;;;;;5033723;28;20032;-46
2022/06/29 01:36:50;;;;;;;1.48;1.42;;;21.10;79.40;;;;;;5033133;28;20080;-46
2022/06/29 01:39:16;;;;;;;5.55;1.50;;;21.10;79.70;;;;;;5033544;28;20029;-53
2022/06/29 01:41:41;;;;;;;1.40;1.30;;;21.00;79.70;;;;;;5033527;28;20063;-49
2022/06/29 01:44:07;;;;;;;3.20;1.38;;;21.00;79.90;;;;;;5015729;28;20033;-51
2022/06/29 01:46:32;;;;;;;1.33;1.27;;;21.00;80.00;;;;;;5033446;28;20432;-45
2022/06/29 01:48:58;;;;;;;1.13;1.13;;;21.00;80.20;;;;;;5014699;28;20029;-49
2022/06/29 01:51:23;;;;;;;3.83;1.73;;;21.00;80.00;;;;;;5033260;28;20034;-49
2022/06/29 01:53:49;;;;;;;2.45;1.58;;;21.00;80.10;;;;;;5032416;28;20036;-51
2022/06/29 01:56:15;;;;;;;1.95;1.48;;;21.00;80.30;;;;;;5032231;28;20022;-48
2022/06/29 01:58:40;;;;;;;4.90;1.40;;;21.00;80.20;;;;;;5032192;28;20037;-51
2022/06/29 02:01:06;;;;;;;1.85;1.48;;;21.00;80.00;;;;;;5015455;28;20022;-50
2022/06/29 02:03:31;;;;;;;2.78;1.30;;;21.00;80.20;;;;;;5033111;28;20041;-52
2022/06/29 02:05:57;;;;;;;3.90;1.50;;;21.00;80.40;;;;;;5033110;28;20148;-48
2022/06/29 02:08:22;;;;;;;2.70;1.25;;;20.90;80.30;;;;;;5032145;28;20100;-47
2022/06/29 02:10:48;;;;;;;2.50;1.38;;;20.90;80.70;;;;;;5033015;28;20025;-48
2022/06/29 02:13:14;;;;;;;4.13;1.45;;;20.90;81.00;;;;;;5032944;28;20030;-49
2022/06/29 02:15:39;;;;;;;1.33;1.30;;;20.90;80.90;;;;;;5033012;28;20025;-45
2022/06/29 02:18:05;;;;;;;3.63;1.20;;;20.90;80.90;;;;;;5033350;28;20033;-50
2022/06/29 02:20:30;;;;;;;1.77;1.55;;;20.80;81.30;;;;;;5016622;28;20477;-48
2022/06/29 02:22:56;;;;;;;2.70;1.38;;;20.90;81.10;;;;;;5033833;28;20025;-46
2022/06/29 02:25:21;;;;;;;3.80;1.83;;;20.80;81.20;;;;;;5033365;28;20033;-49
2022/06/29 02:27:47;;;;;;;1.10;1.10;;;20.80;81.40;;;;;;5031919;28;20040;-45
2022/06/29 02:30:14;;;;;;;3.17;1.52;;;20.80;81.40;;;;;;5032766;28;20167;-49
2022/06/29 02:35:29;;;;;;;1.35;1.25;;;20.80;81.20;;;;;;5032910;28;20064;-52
2022/06/29 02:37:55;;;;;;;2.20;1.15;;;20.80;81.20;;;;;;5032169;28;20025;-48
2022/06/29 02:40:20;;;;;;;3.60;1.75;;;20.80;81.50;;;;;;5033551;28;20104;-44
2022/06/29 02:42:46;;;;;;;2.03;1.40;;;20.80;81.50;;;;;;5033684;28;20029;-50
2022/06/29 02:45:11;;;;;;;1.90;1.80;;;20.80;81.70;;;;;;5033469;28;20025;-48
2022/06/29 02:47:37;;;;;;;6.20;1.42;;;20.80;81.20;;;;;;5032355;28;20084;-52
2022/06/29 02:50:03;;;;;;;1.50;1.40;;;20.90;81.20;;;;;;5032602;28;20473;-51
2022/06/29 02:52:28;;;;;;;8.48;1.48;;;20.90;81.40;;;;;;5032241;28;20029;-46
2022/06/29 02:54:54;;;;;;;1.90;1.65;;;20.90;81.10;;;;;;5032127;28;20593;-53
2022/06/29 02:57:20;;;;;;;1.58;1.42;;;20.90;81.30;;;;;;5011902;28;20017;-49
2022/06/29 02:59:46;;;;;;;6.88;2.17;;;20.90;81.10;;;;;;5032069;28;20108;-51
2022/06/29 03:02:11;;;;;;;1.67;1.40;;;20.90;81.60;;;;;;5032121;28;20115;-46
2022/06/29 03:04:37;;;;;;;4.78;1.50;;;20.80;81.40;;;;;;5031954;28;20075;-45
2022/06/29 03:07:03;;;;;;;2.08;1.50;;;20.80;81.50;;;;;;5030925;28;20405;-49
2022/06/29 03:09:28;;;;;;;2.75;1.50;;;20.80;81.70;;;;;;5032091;28;20119;-49
2022/06/29 03:11:54;;;;;;;3.05;1.75;;;20.80;81.60;;;;;;5031963;28;20105;-46
2022/06/29 03:14:19;;;;;;;2.45;1.73;;;20.80;81.70;;;;;;5031833;28;20040;-46
2022/06/29 03:16:45;;;;;;;1.35;1.30;;;20.80;81.60;;;;;;5031247;28;20025;-47
2022/06/29 03:19:11;;;;;;;4.43;1.60;;;20.80;81.60;;;;;;5031439;28;20030;-49
2022/06/29 03:21:36;;;;;;;2.08;1.23;;;20.80;81.90;;;;;;5031800;28;20041;-49
2022/06/29 03:24:03;;;;;;;4.53;1.58;;;20.80;82.00;;;;;;5031861;28;20087;-48
2022/06/29 03:26:30;;;;;;;2.13;1.40;;;20.80;82.10;;;;;;5031566;28;20313;-48
2022/06/29 03:28:56;;;;;;;2.65;1.48;;;20.70;82.10;;;;;;5030762;28;20033;-50
2022/06/29 03:31:22;;;;;;;4.00;1.92;;;20.70;82.30;;;;;;5031629;28;20025;-48
2022/06/29 03:33:47;;;;;;;4.05;1.83;;;20.70;82.30;;;;;;5031555;28;20033;-44
2022/06/29 03:36:13;;;;;;;1.70;1.60;;;20.80;82.50;;;;;;5031204;28;20025;-49
2022/06/29 03:38:39;;;;;;;1.95;1.30;;;20.80;83.10;;;;;;5030792;28;20465;-47
2022/06/29 03:41:04;;;;;;;1.48;1.38;;;20.70;82.60;;;;;;5031584;28;20049;-47
2022/06/29 03:43:30;;;;;;;2.28;1.38;;;20.70;82.90;;;;;;5031454;28;20033;-45
2022/06/29 03:45:56;;;;;;;4.78;1.58;;;20.80;82.70;;;;;;5031783;28;20226;-50
2022/06/29 03:48:21;;;;;;;3.88;1.95;;;20.80;82.70;;;;;;5030457;28;20281;-48
2022/06/29 03:50:47;;;;;;;2.03;1.83;;;20.80;82.70;;;;;;5031841;28;20148;-48
2022/06/29 03:53:12;;;;;;;1.83;1.73;;;20.90;82.80;;;;;;5013643;28;20067;-52
2022/06/29 03:55:38;;;;;;;2.35;2.00;;;20.80;82.90;;;;;;5031179;28;20394;-46
2022/06/29 03:58:03;;;;;;;2.13;1.92;;;20.80;83.00;;;;;;5029021;28;20017;-47
2022/06/29 04:00:29;;;;;;;3.80;1.95;;;20.80;83.20;;;;;;5031284;28;20025;-48
2022/06/29 04:02:54;;;;;;;2.85;1.77;;;20.80;83.30;;;;;;5031305;28;20026;-50
2022/06/29 04:05:20;;;;;;;2.25;1.60;;;20.80;83.50;;;;;;5031260;28;20092;-49
2022/06/29 04:07:45;;;;;;;2.30;2.10;;;20.70;83.60;;;;;;5012969;28;20244;-48
2022/06/29 04:10:11;;;;;;;5.53;1.67;;;20.80;83.90;;;;;;5031455;28;20557;-48
2022/06/29 04:12:37;;;;;;;2.38;2.00;;;20.70;84.00;;;;;;5031336;28;20034;-47
2022/06/29 04:15:04;;;;;;;4.53;2.00;;;20.70;84.10;;;;;;5031015;28;20478;-48
2022/06/29 04:17:31;;;;;;;5.00;1.88;;;20.80;84.30;;;;;;5031476;28;20499;-48
2022/06/29 04:19:56;;;;;;;2.90;1.70;;;20.80;84.30;;;;;;5034940;28;20031;-48
2022/06/29 04:22:22;;;;;;;1.92;1.83;;;20.80;84.40;;;;;;5034200;28;20547;-47
2022/06/29 04:24:48;;;;;;;2.30;1.90;;;20.80;84.50;;;;;;5030884;28;20083;-47
2022/06/29 04:27:14;;;;;;;2.00;1.90;;;20.90;84.50;;;;;;5034084;28;20044;-48
2022/06/29 04:29:40;;;;;;;1.95;1.80;;;20.80;84.90;;;;;;5034445;28;20033;-46
2022/06/29 04:32:06;;;;;;;2.05;1.92;;;20.90;85.50;;;;;;5034571;28;20049;-50
2022/06/29 04:34:31;;;;;;;6.32;2.08;;;21.00;84.70;;;;;;5029978;28;20037;-49
2022/06/29 04:36:57;;;;;;;4.35;2.00;;;21.00;84.60;;;;;;5031570;28;20108;-48
2022/06/29 04:39:22;;;;;;;1.85;1.75;;;21.10;84.30;;;;;;5034274;28;20033;-48
2022/06/29 04:41:48;;;;;;;4.07;2.20;;;21.00;84.50;;;;;;5034354;28;20029;-49
2022/06/29 04:44:14;;;;;;;2.13;1.88;;;21.10;84.40;;;;;;5034305;28;20040;-51
2022/06/29 04:46:39;;;;;;;3.40;1.70;;;21.10;84.40;;;;;;5032249;28;20041;-48
2022/06/29 04:49:05;;;;;;;3.33;2.25;;;21.10;84.60;;;;;;5033786;28;20026;-47
2022/06/29 04:51:32;;;;;;;2.05;1.90;;;21.10;84.40;;;;;;5034515;28;20032;-47
2022/06/29 04:53:59;;;;;;;3.65;1.92;;;21.20;84.60;;;;;;5033875;28;20481;-49
2022/06/29 04:56:35;;;;;;;3.13;2.00;;;21.30;84.20;;;;;;5034373;28;20029;-46
2022/06/29 04:59:01;;;;;;;1.95;1.80;;;21.40;84.20;;;;;;5033165;28;20104;-50
2022/06/29 05:01:30;;;;;;;5.07;1.80;;;21.40;83.90;;;;;;5033436;28;20044;-49
2022/06/29 05:03:56;;;;;;;2.85;1.63;;;21.50;83.70;;;;;;5029863;28;20021;-46
2022/06/29 05:06:22;;;;;;;2.45;2.05;;;21.70;83.50;;;;;;5033848;28;20067;-50
2022/06/29 05:08:49;;;;;;;1.77;1.50;;;21.80;83.80;;;;;;5032477;28;20050;-49
2022/06/29 05:11:15;;;;;;;3.55;2.20;;;21.90;83.40;;;;;;5024911;28;20026;-51
2022/06/29 05:13:42;;;;;;;6.00;1.90;;;22.10;83.20;;;;;;5030597;28;20447;-49
2022/06/29 05:16:08;;;;;;;3.72;2.00;;;22.30;83.40;;;;;;5016183;28;20449;-48
2022/06/29 05:18:34;;;;;;;2.50;1.70;;;22.50;82.00;;;;;;5033035;28;20061;-47
2022/06/29 05:21:00;;;;;;;3.65;1.70;;;22.50;82.20;;;;;;5033939;28;20036;-45
2022/06/29 05:23:27;;;;;;;4.15;2.28;;;22.70;82.00;;;;;;5033276;28;20033;-49
2022/06/29 05:25:53;;;;;;;2.65;2.00;;;22.80;81.20;;;;;;5033525;28;20029;-51
2022/06/29 05:28:18;;;;;;;3.22;2.20;;;23.00;80.60;;;;;;5032863;28;20036;-47
2022/06/29 05:30:44;;;;;;;1.90;1.80;;;23.40;80.80;;;;;;5033669;28;20025;-50
2022/06/29 05:33:09;;;;;;;1.80;1.70;;;23.70;79.10;;;;;;5033506;28;20029;-51
2022/06/29 05:35:35;;;;;;;1.90;1.80;;;23.70;79.70;;;;;;5033657;28;20033;-48
2022/06/29 05:38:04;;;;;;;5.30;1.88;;;23.70;79.10;;;;;;5031857;28;20024;-51
2022/06/29 05:40:30;;;;;;;3.58;2.20;;;23.60;79.10;;;;;;5028846;28;20078;-48
2022/06/29 05:42:59;;;;;;;2.28;2.03;;;23.30;79.90;;;;;;5033326;28;20486;-46
2022/06/29 05:45:26;;;;;;;2.33;2.22;;;22.80;81.00;;;;;;5033247;28;20037;-48
2022/06/29 05:47:53;;;;;;;2.25;2.15;;;22.60;82.00;;;;;;5054671;23;20038;-50
2022/06/29 05:50:19;;;;;;;4.85;2.45;;;22.40;83.10;;;;;;5053040;28;20029;-46
2022/06/29 05:52:45;;;;;;;3.53;2.50;;;22.20;83.80;;;;;;5035210;28;20028;-52
2022/06/29 05:55:10;;;;;;;5.72;2.70;;;22.20;84.20;;;;;;5052765;28;20103;-47
2022/06/29 05:57:36;;;;;;;2.90;2.40;;;22.10;84.20;;;;;;5052218;28;20064;-49
2022/06/29 06:00:04;;;;;;;3.25;2.58;;;22.10;84.00;;;;;;5052945;28;20025;-50
2022/06/29 06:02:30;;;;;;;4.07;2.13;;;22.00;84.70;;;;;;5053010;28;20103;-48
2022/06/29 06:04:55;;;;;;;4.43;2.63;;;21.90;85.20;;;;;;5052942;28;20064;-48
2022/06/29 06:07:20;;;;;;;5.03;2.35;;;21.90;85.50;;;;;;5052194;28;20098;-46
2022/06/29 06:09:46;;;;;;;5.85;2.47;;;21.90;86.30;;;;;;5053086;28;20064;-51
2022/06/29 06:12:12;;;;;;;9.57;2.47;;;22.00;86.60;;;;;;5035081;28;20032;-50
2022/06/29 06:14:37;;;;;;;2.88;2.60;;;22.00;85.30;;;;;;5052923;28;20086;-51
2022/06/29 06:17:03;;;;;;;9.23;2.53;;;22.00;85.70;;;;;;5051827;28;20021;-47
2022/06/29 06:19:29;;;;;;;5.78;2.45;;;22.00;85.60;;;;;;5052765;28;20087;-48
2022/06/29 06:21:54;;;;;;;3.88;2.53;;;22.00;85.50;;;;;;5052638;28;20032;-49
2022/06/29 06:24:20;;;;;;;8.93;2.75;;;22.10;85.90;;;;;;5052657;28;20029;-48
2022/06/29 06:26:46;;;;;;;3.63;2.65;;;22.20;85.80;;;;;;5052192;28;20028;-47
2022/06/29 06:29:11;;;;;;;2.65;2.35;;;22.40;86.10;;;;;;5035134;28;20481;-50
2022/06/29 06:31:37;;;;;;;4.45;2.65;;;22.60;85.30;;;;;;5052591;28;20033;-47
2022/06/29 06:34:02;;;;;;;3.08;2.40;;;22.80;85.00;;;;;;5052737;28;20017;-46
2022/06/29 06:36:28;;;;;;;4.47;2.55;;;23.00;84.20;;;;;;5052764;28;20483;-49
2022/06/29 06:38:54;;;;;;;4.65;2.60;;;23.00;84.10;;;;;;5059806;28;20025;-49
2022/06/29 06:41:22;;;;;;;3.05;2.47;;;22.90;84.70;;;;;;5060879;28;20049;-49
2022/06/29 06:43:52;;;;;;;3.80;2.88;;;22.90;84.50;;;;;;5052404;28;20443;-48
2022/06/29 06:46:19;;;;;;;3.17;2.20;;;22.80;85.40;;;;;;5052015;28;20032;-48
2022/06/29 06:48:45;;;;;;;3.97;2.75;;;22.70;86.00;;;;;;5049553;28;20040;-49
2022/06/29 06:51:11;;;;;;;4.22;2.47;;;22.70;86.30;;;;;;5052082;28;20025;-47
2022/06/29 06:53:37;;;;;;;5.53;2.90;;;22.80;86.00;;;;;;5052177;28;20025;-49
2022/06/29 06:56:03;;;;;;;3.47;2.33;;;22.80;85.90;;;;;;5054610;28;20025;-48
2022/06/29 06:58:29;;;;;;;6.45;3.13;;;22.80;86.30;;;;;;5057501;28;20021;-51
2022/06/29 07:00:54;;;;;;;4.70;3.30;;;22.70;86.30;;;;;;5057414;28;20106;-49
2022/06/29 07:03:20;;;;;;;7.05;2.70;;;22.80;86.70;;;;;;5056238;28;20033;-49
2022/06/29 07:05:45;;;;;;;3.47;3.00;;;22.90;86.70;;;;;;5056756;28;20029;-51
2022/06/29 07:08:11;;;;;;;6.32;3.47;;;23.00;85.80;;;;;;5054040;28;20037;-47
2022/06/29 07:10:36;;;;;;;3.60;3.28;;;23.10;85.30;;;;;;5055454;28;20100;-50
2022/06/29 07:13:02;;;;;;;4.65;3.22;;;23.10;85.90;;;;;;5040227;28;20044;-48
2022/06/29 07:15:28;;;;;;;7.47;3.28;;;23.10;86.10;;;;;;5042710;28;20509;-49
2022/06/29 07:17:54;;;;;;;3.38;3.17;;;23.20;86.60;;;;;;5052571;28;20025;-46
2022/06/29 07:20:20;;;;;;;5.68;3.42;;;23.20;86.30;;;;;;5036385;28;20112;-48
2022/06/29 07:22:46;;;;;;;3.78;3.30;;;23.30;86.40;;;;;;5050952;28;20706;-52
2022/06/29 07:25:11;;;;;;;3.70;3.20;;;23.40;86.30;;;;;;5054067;28;20036;-54
2022/06/29 07:27:37;;;;;;;6.10;3.35;;;23.40;86.30;;;;;;5051124;28;20481;-54
2022/06/29 07:30:04;;;;;;;4.32;3.10;;;23.60;85.40;;;;;;5054380;28;20083;-56
2022/06/29 07:32:30;;;;;;;6.25;3.45;;;23.80;85.70;;;;;;5053008;28;20017;-55
2022/06/29 07:34:56;;;;;;;3.95;3.65;;;24.80;83.30;;;;;;5052549;28;20017;-53
2022/06/29 07:37:22;;;;;;;8.65;3.00;;;25.60;80.80;;;;;;5052676;28;20043;-53
2022/06/29 07:39:47;;;;;;;3.70;3.20;;;26.10;79.80;;;;;;5057137;28;20484;-53
2022/06/29 07:42:13;;;;;;;3.47;3.17;;;26.90;78.80;;;;;;5072160;28;20047;-58
2022/06/29 07:44:38;;;;;;;4.78;2.97;;;28.10;75.90;;;;;;5054519;28;20032;-51
2022/06/29 07:47:04;;;;;;;5.30;3.25;;;29.40;73.40;;;;;;5052497;28;20504;-52
2022/06/29 07:49:30;;;;;;;3.03;2.72;;;30.30;71.70;;;;;;5050990;28;20033;-55
2022/06/29 07:51:56;;;;;;;5.63;3.22;;;31.00;70.10;;;;;;5049975;28;20396;-58
2022/06/29 07:54:22;;;;;;;4.57;2.88;;;31.70;69.20;;;;;;5053895;28;20021;-56
2022/06/29 07:56:47;;;;;;;10.02;8.88;;;32.40;67.30;;;;;;5054141;28;20147;-55
2022/06/29 07:59:13;;;;;;;14.25;10.00;;;32.30;67.00;;;;;;5055010;28;20170;-60
2022/06/29 08:01:39;;;;;;;5.07;2.67;;;32.50;66.70;;;;;;5056512;28;20075;-59
2022/06/29 08:04:04;;;;;;;4.55;3.10;;;33.00;66.50;;;;;;5057311;28;20072;-54
2022/06/29 08:06:30;;;;;;;2.97;2.75;;;33.60;65.50;;;;;;5055543;28;20029;-55
2022/06/29 08:08:55;;;;;;;5.75;3.42;;;33.70;64.70;;;;;;5054594;28;20135;-52
2022/06/29 08:11:21;;;;;;;3.38;2.97;;;33.70;64.50;;;;;;5055520;28;20125;-52
2022/06/29 08:13:47;;;;;;;6.32;3.35;;;33.40;64.60;;;;;;5057602;28;20475;-51
2022/06/29 08:16:12;;;;;;;4.07;3.00;;;33.10;64.80;;;;;;5059526;28;20431;-51
2022/06/29 08:18:38;;;;;;;4.50;3.25;;;33.00;65.30;;;;;;5058206;28;20067;-49
2022/06/29 08:21:04;;;;;;;2.95;2.75;;;32.70;66.50;;;;;;5058051;28;20017;-48
2022/06/29 08:23:30;;;;;;;6.75;3.88;;;32.60;66.50;;;;;;5057568;28;20025;-50
2022/06/29 08:25:56;;;;;;;5.35;3.88;;;32.80;66.70;;;;;;5059112;28;20029;-51
2022/06/29 08:28:25;;;;;;;5.72;3.38;;;32.70;65.80;;;;;;5054824;28;20025;-51
2022/06/29 08:30:50;;;;;;;11.15;4.72;;;32.40;67.70;;;;;;5057516;28;20013;-49
2022/06/29 08:33:17;;;;;;;3.42;3.17;;;32.10;67.60;;;;;;5055860;28;20028;-51
2022/06/29 08:35:43;;;;;;;4.18;3.67;;;32.00;67.70;;;;;;5058710;28;20420;-53
2022/06/29 08:38:08;;;;;;;4.45;3.15;;;31.90;67.90;;;;;;5057003;28;20508;-48
2022/06/29 08:40:44;;;;;;;5.15;3.63;;;31.80;68.30;;;;;;5056164;28;20040;-52
2022/06/29 08:43:18;;;;;;;4.60;3.90;;;31.70;68.10;;;;;;5056092;28;20017;-49
2022/06/29 08:45:52;;;;;;;5.15;3.25;;;31.70;68.50;;;;;;5038325;28;20116;-48
2022/06/29 08:48:17;;;;;;;6.30;3.42;;;31.70;68.90;;;;;;5036799;28;20032;-48
2022/06/29 08:50:54;;;;;;;4.30;3.88;;;31.80;68.80;;;;;;5056171;28;20397;-48
2022/06/29 08:53:22;;;;;;;7.78;3.60;;;31.80;68.20;;;;;;5055908;28;20052;-50
2022/06/29 08:55:54;;;;;;;5.85;3.53;;;31.80;69.00;;;;;;5056058;28;20434;-47
2022/06/29 08:58:23;;;;;;;5.57;4.05;;;31.80;69.90;;;;;;5055568;28;20063;-50
2022/06/29 09:00:49;;;;;;;9.57;3.55;;;31.70;68.70;;;;;;5056053;28;20032;-50
2022/06/29 09:03:19;;;;;;;6.97;4.25;;;31.70;68.70;;;;;;5054900;28;20032;-52
2022/06/29 09:05:48;;;;;;;7.63;4.97;;;31.50;69.20;;;;;;5055184;28;20025;-51
2022/06/29 09:08:15;;;;;;;5.18;4.18;;;31.70;70.00;;;;;;5054154;28;20574;-48
2022/06/29 09:10:40;;;;;;;4.75;3.92;;;32.10;70.10;;;;;;5055830;28;20025;-48
2022/06/29 09:13:06;;;;;;;4.18;3.75;;;32.60;70.10;;;;;;5056424;28;20032;-48
2022/06/29 09:15:38;;;;;;;4.60;3.42;;;32.80;67.90;;;;;;5055888;28;20105;-48
2022/06/29 09:18:22;;;;;;;5.82;3.53;;;32.40;68.20;;;;;;5053927;28;20449;-52
2022/06/29 09:20:54;;;;;;;4.45;3.42;;;32.00;69.30;;;;;;5054795;28;20485;-53
2022/06/29 09:23:20;;;;;;;7.05;3.45;;;31.30;69.50;;;;;;5055827;28;20035;-52
2022/06/29 09:25:46;;;;;;;4.05;3.75;;;30.90;71.70;;;;;;5055879;28;20031;-55
2022/06/29 09:28:21;;;;;;;34.90;28.98;;;30.70;72.20;;;;;;5053615;28;20447;-45
2022/06/29 09:30:47;;;;;;;57.22;46.83;;;30.80;72.30;;;;;;5056735;28;20056;-44
2022/06/29 09:33:13;;;;;;;6.32;5.03;;;30.70;71.00;;;;;;5054729;28;20061;-47
2022/06/29 09:35:39;;;;;;;3.83;3.55;;;30.70;70.80;;;;;;5055421;28;20111;-48
2022/06/29 09:38:26;;;;;;;8.10;4.10;;;30.80;70.60;;;;;;5046912;28;20123;-51
2022/06/29 09:41:08;;;;;;;4.50;4.07;;;30.80;71.30;;;;;;5063219;28;20037;-50
2022/06/29 09:43:35;;;;;;;4.10;3.75;;;30.70;72.00;;;;;;5060180;28;20021;-51
2022/06/29 09:46:03;;;;;;;5.50;4.82;;;30.80;71.50;;;;;;5043512;28;20014;-52
2022/06/29 09:48:30;;;;;;;5.68;4.45;;;30.70;71.40;;;;;;5057514;28;20053;-49
2022/06/29 09:50:56;;;;;;;6.43;4.07;;;30.60;72.20;;;;;;5053339;28;20021;-52
2022/06/29 09:53:36;;;;;;;6.55;4.20;;;30.50;74.00;;;;;;5052583;28;20021;-54
2022/06/29 09:56:04;;;;;;;7.22;4.03;;;30.40;74.10;;;;;;5053554;28;20024;-49
2022/06/29 09:58:44;;;;;;;5.07;4.38;;;30.40;73.90;;;;;;5054543;28;20369;-53
2022/06/29 10:03:57;;;;;;;4.72;4.32;;;30.50;73.10;;;;;;5053657;28;20090;-51
2022/06/29 10:06:24;;;;;;;6.60;4.28;;;30.30;73.20;;;;;;5052666;28;20171;-51
2022/06/29 10:08:51;;;;;;;5.55;4.68;;;29.90;74.00;;;;;;5051610;28;20146;-55
2022/06/29 10:14:40;;;;;;;4.55;4.15;;;29.80;75.30;;;;;;5052743;28;20232;-55
2022/06/29 10:17:32;;;;;;;6.82;4.82;;;29.90;74.50;;;;;;5051482;28;20029;-53
2022/06/29 10:20:35;;;;;;;5.72;4.18;;;29.80;74.20;;;;;;5034341;28;20024;-52
2022/06/29 10:23:00;;;;;;;6.20;4.30;;;29.90;74.70;;;;;;5052694;28;20028;-55
2022/06/29 10:25:29;;;;;;;8.20;4.57;;;30.00;75.40;;;;;;5052559;28;20025;-50
2022/06/29 10:28:13;;;;;;;8.48;4.50;;;30.10;75.30;;;;;;5051662;28;20025;-55
2022/06/29 10:30:38;;;;;;;7.57;4.85;;;30.10;74.70;;;;;;5052376;28;20531;-54
2022/06/29 10:33:30;;;;;;;4.47;4.07;;;30.20;75.60;;;;;;5052337;28;20040;-48
2022/06/29 10:36:03;;;;;;;7.10;3.97;;;30.30;77.00;;;;;;5052388;28;20024;-50
2022/06/29 10:38:29;;;;;;;4.63;4.28;;;30.20;75.20;;;;;;5051609;28;20044;-54
2022/06/29 10:43:07;;;;;;;5.53;4.50;;;30.00;75.90;;;;;;5051960;28;20512;-52
2022/06/29 10:43:55;;;;;;;7.05;4.63;;;30.00;76.10;;;;;;5051747;28;20108;-52
2022/06/29 10:46:22;;;;;;;5.43;4.40;;;30.00;76.60;;;;;;5051738;28;20560;-54
2022/06/29 10:49:17;;;;;;;4.95;4.43;;;30.00;75.40;;;;;;5051165;28;20550;-52
2022/06/29 10:51:44;;;;;;;4.75;4.35;;;29.70;76.80;;;;;;5051616;28;20052;-48
2022/06/29 10:54:27;;;;;;;4.57;4.18;;;29.60;76.30;;;;;;5052053;28;20025;-50
2022/06/29 10:56:54;;;;;;;10.23;9.10;;;29.40;76.40;;;;;;5050973;28;20021;-50
2022/06/29 10:59:34;;;;;;;24.80;20.65;;;29.30;76.40;;;;;;5051797;28;20030;-53
2022/06/29 11:02:15;;;;;;;16.25;13.40;;;29.30;76.80;;;;;;5051742;28;20024;-53
2022/06/29 11:04:42;;;;;;;7.82;4.57;;;29.50;76.10;;;;;;5033674;28;20033;-51
2022/06/29 11:12:49;;;;;;;5.93;4.00;;;29.80;76.00;;;;;;5051549;28;20116;-54
2022/06/29 11:15:40;;;;;;;6.35;4.07;;;29.70;76.60;;;;;;5033710;28;20031;-55
2022/06/29 11:18:13;;;;;;;4.53;3.85;;;29.70;76.80;;;;;;5050572;28;20021;-54
2022/06/29 11:20:41;;;;;;;5.70;4.30;;;29.60;76.60;;;;;;5051507;28;20438;-54
2022/06/29 11:23:14;;;;;;;5.63;4.70;;;29.60;76.30;;;;;;5051324;28;20029;-56
2022/06/29 11:25:47;;;;;;;5.13;3.97;;;29.50;76.20;;;;;;5051475;28;20025;-49
2022/06/29 11:28:16;;;;;;;4.72;4.22;;;29.50;76.50;;;;;;5051357;28;20021;-53
2022/06/29 11:30:41;;;;;;;5.80;4.78;;;29.50;76.30;;;;;;5052057;28;20116;-54
2022/06/29 11:33:11;;;;;;;7.57;4.40;;;29.50;76.00;;;;;;5029910;28;20465;-56
2022/06/29 11:35:42;;;;;;;4.78;4.20;;;29.40;76.40;;;;;;5050835;28;20563;-52
2022/06/29 11:38:08;;;;;;;5.20;4.80;;;29.30;76.60;;;;;;5050157;28;20025;-50
2022/06/29 11:40:46;;;;;;;4.43;4.05;;;29.20;76.50;;;;;;5051071;28;20021;-55
2022/06/29 11:43:16;;;;;;;4.60;4.20;;;29.30;77.30;;;;;;5050584;28;20021;-55
2022/06/29 11:45:47;;;;;;;5.03;4.47;;;29.40;78.70;;;;;;5050489;28;20211;-53
2022/06/29 11:48:29;;;;;;;4.05;3.75;;;29.50;78.50;;;;;;5049406;28;20036;-50
2022/06/29 11:50:59;;;;;;;5.15;4.43;;;29.60;77.70;;;;;;5051031;28;20032;-47
2022/06/29 11:53:44;;;;;;;4.53;4.22;;;29.70;77.50;;;;;;5050783;28;20029;-48
2022/06/29 11:56:12;;;;;;;4.35;4.00;;;29.70;76.50;;;;;;5050613;28;20028;-48
2022/06/29 11:58:49;;;;;;;6.57;4.38;;;29.70;77.20;;;;;;5051221;28;20064;-47
2022/06/29 12:01:16;;;;;;;4.40;3.90;;;29.80;76.50;;;;;;5051274;28;20109;-48
2022/06/29 12:03:49;;;;;;;4.22;3.80;;;29.90;76.30;;;;;;5049487;28;20041;-47
2022/06/29 12:06:16;;;;;;;8.73;4.25;;;30.00;76.20;;;;;;5049471;28;20029;-48
2022/06/29 12:08:41;;;;;;;5.10;3.83;;;30.00;75.40;;;;;;5050588;28;20056;-48
2022/06/29 12:11:07;;;;;;;5.05;3.53;;;30.00;74.60;;;;;;5051435;28;20063;-52
2022/06/29 12:13:33;;;;;;;4.65;3.70;;;30.00;75.70;;;;;;5050586;28;20489;-51
2022/06/29 12:15:58;;;;;;;6.20;3.60;;;29.90;76.90;;;;;;5046430;28;20113;-49
2022/06/29 12:18:24;;;;;;;4.18;3.78;;;29.90;75.30;;;;;;5049873;28;20037;-49
2022/06/29 12:20:50;;;;;;;4.30;3.88;;;29.70;74.70;;;;;;5051527;28;20067;-47
2022/06/29 12:23:16;;;;;;;4.45;3.97;;;29.60;75.60;;;;;;5050589;28;20052;-51
2022/06/29 12:25:41;;;;;;;4.35;4.03;;;29.50;76.10;;;;;;5051478;28;20032;-48
2022/06/29 12:28:07;;;;;;;3.72;3.42;;;29.50;77.30;;;;;;5055575;28;20060;-48
2022/06/29 12:30:34;;;;;;;7.90;3.78;;;29.50;77.40;;;;;;5055158;28;20022;-48
2022/06/29 12:32:59;;;;;;;5.65;3.45;;;29.60;78.20;;;;;;5051258;28;20013;-49
2022/06/29 12:35:25;;;;;;;3.65;3.42;;;29.70;78.10;;;;;;5051342;28;20108;-49
2022/06/29 12:37:53;;;;;;;3.70;3.50;;;29.80;79.40;;;;;;5050052;28;20470;-50
2022/06/29 12:40:19;;;;;;;4.55;3.95;;;29.90;77.50;;;;;;5052871;28;20530;-61
2022/06/29 12:42:44;;;;;;;7.25;3.88;;;29.80;77.50;;;;;;5054546;28;20036;-48
2022/06/29 12:45:10;;;;;;;14.45;8.45;;;29.80;76.50;;;;;;5054539;28;20497;-48
2022/06/29 12:47:36;;;;;;;40.97;35.83;;;29.80;77.10;;;;;;5053559;28;20074;-53
2022/06/29 12:50:02;;;;;;;4.72;4.32;;;29.70;75.90;;;;;;5054474;28;20029;-53
2022/06/29 12:52:27;;;;;;;6.20;3.97;;;29.80;81.30;;;;;;5054438;28;20020;-51
2022/06/29 12:54:53;;;;;;;6.45;3.10;;;29.60;78.20;;;;;;5054112;28;20489;-49
2022/06/29 12:57:19;;;;;;;4.82;3.53;;;29.50;77.50;;;;;;5053046;28;20206;-48
2022/06/29 12:59:44;;;;;;;4.75;3.13;;;29.40;79.30;;;;;;5054193;28;20046;-50
2022/06/29 13:02:10;;;;;;;10.35;3.60;;;29.30;80.40;;;;;;5054139;28;20369;-50